sensor_id;sensor_type;location;lat;lon;timestamp;P1;durP1;ratioP1;P2;durP2;ratioP2
25419;SDS011;13354;48.174;11.566;2024-02-28T00:01:20;26.02;;;17.85;;
25419;SDS011;13354;48.174;11.566;2024-02-28T00:03:45;24.52;;;18.23;;
25419;SDS011;13354;48.174;11.566;2024-02-28T00:06:11;25.15;;;17.92;;
25419;SDS011;13354;48.174;11.566;2024-02-28T00:08:37;25.45;;;17.88;;
25419;SDS011;13354;48.174;11.566;2024-02-28T00:11:02;24.60;;;16.65;;
25419;SDS011;13354;48.174;11.566;2024-02-28T00:13:27;25.98;;;18.17;;
25419;SDS011;13354;48.174;11.566;2024-02-28T00:15:53;25.08;;;18.05;;
25419;SDS011;13354;48.174;11.566;2024-02-28T00:18:18;27.67;;;18.77;;
25419;SDS011;13354;48.174;11.566;2024-02-28T00:20:44;26.70;;;17.23;;
25419;SDS011;13354;48.174;11.566;2024-02-28T00:23:10;24.80;;;18.25;;
25419;SDS011;13354;48.174;11.566;2024-02-28T00:25:35;24.45;;;18.35;;
25419;SDS011;13354;48.174;11.566;2024-02-28T00:28:01;30.67;;;19.27;;
25419;SDS011;13354;48.174;11.566;2024-02-28T00:30:26;27.08;;;18.67;;
25419;SDS011;13354;48.174;11.566;2024-02-28T00:32:53;25.85;;;18.42;;
25419;SDS011;13354;48.174;11.566;2024-02-28T00:35:19;27.60;;;19.55;;
25419;SDS011;13354;48.174;11.566;2024-02-28T00:37:44;26.08;;;18.73;;
25419;SDS011;13354;48.174;11.566;2024-02-28T00:40:09;26.45;;;18.60;;
25419;SDS011;13354;48.174;11.566;2024-02-28T00:42:35;28.48;;;20.05;;
25419;SDS011;13354;48.174;11.566;2024-02-28T00:45:00;26.95;;;18.98;;
25419;SDS011;13354;48.174;11.566;2024-02-28T00:47:26;26.50;;;18.60;;
25419;SDS011;13354;48.174;11.566;2024-02-28T00:49:51;27.63;;;18.98;;
25419;SDS011;13354;48.174;11.566;2024-02-28T00:52:16;26.85;;;19.10;;
25419;SDS011;13354;48.174;11.566;2024-02-28T00:54:42;27.20;;;19.30;;
25419;SDS011;13354;48.174;11.566;2024-02-28T00:57:07;29.67;;;19.33;;
25419;SDS011;13354;48.174;11.566;2024-02-28T00:59:33;24.75;;;17.83;;
25419;SDS011;13354;48.174;11.566;2024-02-28T01:01:58;26.55;;;18.75;;
25419;SDS011;13354;48.174;11.566;2024-02-28T01:04:23;26.73;;;18.48;;
25419;SDS011;13354;48.174;11.566;2024-02-28T01:06:48;28.02;;;19.38;;
25419;SDS011;13354;48.174;11.566;2024-02-28T01:09:14;26.17;;;18.23;;
25419;SDS011;13354;48.174;11.566;2024-02-28T01:11:39;23.75;;;18.38;;
25419;SDS011;13354;48.174;11.566;2024-02-28T01:14:05;24.42;;;18.55;;
25419;SDS011;13354;48.174;11.566;2024-02-28T01:16:30;24.35;;;18.15;;
25419;SDS011;13354;48.174;11.566;2024-02-28T01:18:55;28.73;;;19.08;;
25419;SDS011;13354;48.174;11.566;2024-02-28T01:21:21;27.00;;;18.77;;
25419;SDS011;13354;48.174;11.566;2024-02-28T01:23:46;26.83;;;19.27;;
25419;SDS011;13354;48.174;11.566;2024-02-28T01:26:11;26.88;;;18.83;;
25419;SDS011;13354;48.174;11.566;2024-02-28T01:28:37;25.52;;;18.85;;
25419;SDS011;13354;48.174;11.566;2024-02-28T01:31:02;27.02;;;18.88;;
25419;SDS011;13354;48.174;11.566;2024-02-28T01:33:28;25.67;;;18.83;;
25419;SDS011;13354;48.174;11.566;2024-02-28T01:35:53;27.10;;;20.05;;
25419;SDS011;13354;48.174;11.566;2024-02-28T01:38:18;28.23;;;20.23;;
25419;SDS011;13354;48.174;11.566;2024-02-28T01:40:47;27.85;;;19.75;;
25419;SDS011;13354;48.174;11.566;2024-02-28T01:43:13;27.98;;;19.30;;
25419;SDS011;13354;48.174;11.566;2024-02-28T01:45:38;27.92;;;19.58;;
25419;SDS011;13354;48.174;11.566;2024-02-28T01:48:04;26.33;;;18.95;;
25419;SDS011;13354;48.174;11.566;2024-02-28T01:50:32;27.05;;;19.08;;
25419;SDS011;13354;48.174;11.566;2024-02-28T01:52:58;26.88;;;19.27;;
25419;SDS011;13354;48.174;11.566;2024-02-28T01:55:24;27.98;;;19.80;;
25419;SDS011;13354;48.174;11.566;2024-02-28T01:57:51;25.58;;;19.05;;
25419;SDS011;13354;48.174;11.566;2024-02-28T02:00:17;28.05;;;18.90;;
25419;SDS011;13354;48.174;11.566;2024-02-28T02:02:44;28.30;;;19.63;;
25419;SDS011;13354;48.174;11.566;2024-02-28T02:05:10;28.73;;;20.45;;
25419;SDS011;13354;48.174;11.566;2024-02-28T02:07:35;33.03;;;21.35;;
25419;SDS011;13354;48.174;11.566;2024-02-28T02:10:01;30.25;;;21.55;;
25419;SDS011;13354;48.174;11.566;2024-02-28T02:12:26;29.20;;;20.35;;
25419;SDS011;13354;48.174;11.566;2024-02-28T02:14:52;27.42;;;19.90;;
25419;SDS011;13354;48.174;11.566;2024-02-28T02:17:17;28.88;;;20.73;;
25419;SDS011;13354;48.174;11.566;2024-02-28T02:19:43;30.63;;;20.35;;
25419;SDS011;13354;48.174;11.566;2024-02-28T02:22:09;29.23;;;20.23;;
25419;SDS011;13354;48.174;11.566;2024-02-28T02:24:37;29.23;;;20.52;;
25419;SDS011;13354;48.174;11.566;2024-02-28T02:27:02;30.70;;;20.15;;
25419;SDS011;13354;48.174;11.566;2024-02-28T02:29:30;26.63;;;19.67;;
25419;SDS011;13354;48.174;11.566;2024-02-28T02:31:55;26.83;;;19.13;;
25419;SDS011;13354;48.174;11.566;2024-02-28T02:34:20;27.40;;;20.08;;
25419;SDS011;13354;48.174;11.566;2024-02-28T02:36:46;32.10;;;20.00;;
25419;SDS011;13354;48.174;11.566;2024-02-28T02:39:11;26.98;;;20.00;;
25419;SDS011;13354;48.174;11.566;2024-02-28T02:41:36;27.80;;;19.73;;
25419;SDS011;13354;48.174;11.566;2024-02-28T02:44:02;29.02;;;20.02;;
25419;SDS011;13354;48.174;11.566;2024-02-28T02:46:27;28.67;;;20.00;;
25419;SDS011;13354;48.174;11.566;2024-02-28T02:48:52;30.05;;;20.60;;
25419;SDS011;13354;48.174;11.566;2024-02-28T02:51:18;30.15;;;21.00;;
25419;SDS011;13354;48.174;11.566;2024-02-28T02:53:44;31.35;;;21.00;;
25419;SDS011;13354;48.174;11.566;2024-02-28T02:56:09;28.40;;;21.33;;
25419;SDS011;13354;48.174;11.566;2024-02-28T02:58:35;30.25;;;21.33;;
25419;SDS011;13354;48.174;11.566;2024-02-28T03:01:00;28.00;;;20.77;;
25419;SDS011;13354;48.174;11.566;2024-02-28T03:03:25;29.52;;;21.02;;
25419;SDS011;13354;48.174;11.566;2024-02-28T03:05:51;31.40;;;21.40;;
25419;SDS011;13354;48.174;11.566;2024-02-28T03:08:16;31.50;;;21.65;;
25419;SDS011;13354;48.174;11.566;2024-02-28T03:10:41;32.88;;;21.85;;
25419;SDS011;13354;48.174;11.566;2024-02-28T03:13:07;30.27;;;21.85;;
25419;SDS011;13354;48.174;11.566;2024-02-28T03:15:33;31.20;;;20.65;;
25419;SDS011;13354;48.174;11.566;2024-02-28T03:17:59;29.77;;;21.02;;
25419;SDS011;13354;48.174;11.566;2024-02-28T03:20:24;32.25;;;21.67;;
25419;SDS011;13354;48.174;11.566;2024-02-28T03:22:50;31.40;;;21.55;;
25419;SDS011;13354;48.174;11.566;2024-02-28T03:25:15;32.03;;;21.17;;
25419;SDS011;13354;48.174;11.566;2024-02-28T03:27:41;31.35;;;21.95;;
25419;SDS011;13354;48.174;11.566;2024-02-28T03:30:06;33.85;;;23.98;;
25419;SDS011;13354;48.174;11.566;2024-02-28T03:32:32;33.80;;;23.00;;
25419;SDS011;13354;48.174;11.566;2024-02-28T03:34:57;31.52;;;22.20;;
25419;SDS011;13354;48.174;11.566;2024-02-28T03:37:23;33.97;;;23.58;;
25419;SDS011;13354;48.174;11.566;2024-02-28T03:39:48;33.95;;;23.67;;
25419;SDS011;13354;48.174;11.566;2024-02-28T03:42:14;35.45;;;23.17;;
25419;SDS011;13354;48.174;11.566;2024-02-28T03:44:39;35.58;;;23.55;;
25419;SDS011;13354;48.174;11.566;2024-02-28T03:47:04;31.73;;;22.17;;
25419;SDS011;13354;48.174;11.566;2024-02-28T03:49:30;30.05;;;21.85;;
25419;SDS011;13354;48.174;11.566;2024-02-28T03:51:55;34.55;;;23.95;;
25419;SDS011;13354;48.174;11.566;2024-02-28T03:54:20;36.78;;;24.65;;
25419;SDS011;13354;48.174;11.566;2024-02-28T03:56:46;34.25;;;23.15;;
25419;SDS011;13354;48.174;11.566;2024-02-28T03:59:11;33.65;;;23.65;;
25419;SDS011;13354;48.174;11.566;2024-02-28T04:01:36;35.03;;;24.08;;
25419;SDS011;13354;48.174;11.566;2024-02-28T04:04:02;36.95;;;24.73;;
25419;SDS011;13354;48.174;11.566;2024-02-28T04:06:27;35.83;;;24.15;;
25419;SDS011;13354;48.174;11.566;2024-02-28T04:08:53;36.40;;;24.40;;
25419;SDS011;13354;48.174;11.566;2024-02-28T04:11:18;36.65;;;24.33;;
25419;SDS011;13354;48.174;11.566;2024-02-28T04:13:44;37.25;;;25.30;;
25419;SDS011;13354;48.174;11.566;2024-02-28T04:16:09;37.00;;;24.08;;
25419;SDS011;13354;48.174;11.566;2024-02-28T04:18:35;40.00;;;25.95;;
25419;SDS011;13354;48.174;11.566;2024-02-28T04:21:01;35.65;;;24.58;;
25419;SDS011;13354;48.174;11.566;2024-02-28T04:23:26;36.20;;;24.48;;
25419;SDS011;13354;48.174;11.566;2024-02-28T04:25:51;36.80;;;25.48;;
25419;SDS011;13354;48.174;11.566;2024-02-28T04:28:17;40.05;;;25.02;;
25419;SDS011;13354;48.174;11.566;2024-02-28T04:30:42;37.83;;;25.23;;
25419;SDS011;13354;48.174;11.566;2024-02-28T04:33:08;36.67;;;25.50;;
25419;SDS011;13354;48.174;11.566;2024-02-28T04:35:34;38.80;;;24.83;;
25419;SDS011;13354;48.174;11.566;2024-02-28T04:37:59;34.53;;;24.52;;
25419;SDS011;13354;48.174;11.566;2024-02-28T04:40:24;36.03;;;24.75;;
25419;SDS011;13354;48.174;11.566;2024-02-28T04:42:50;36.08;;;26.00;;
25419;SDS011;13354;48.174;11.566;2024-02-28T04:45:15;38.53;;;26.33;;
25419;SDS011;13354;48.174;11.566;2024-02-28T04:47:40;40.28;;;25.75;;
25419;SDS011;13354;48.174;11.566;2024-02-28T04:50:06;42.20;;;26.73;;
25419;SDS011;13354;48.174;11.566;2024-02-28T04:52:32;39.15;;;26.33;;
25419;SDS011;13354;48.174;11.566;2024-02-28T04:54:58;37.25;;;25.52;;
25419;SDS011;13354;48.174;11.566;2024-02-28T04:57:23;36.03;;;24.83;;
25419;SDS011;13354;48.174;11.566;2024-02-28T04:59:48;37.63;;;25.98;;
25419;SDS011;13354;48.174;11.566;2024-02-28T05:02:14;36.00;;;25.02;;
25419;SDS011;13354;48.174;11.566;2024-02-28T05:04:39;40.53;;;25.92;;
25419;SDS011;13354;48.174;11.566;2024-02-28T05:07:05;41.30;;;25.55;;
25419;SDS011;13354;48.174;11.566;2024-02-28T05:09:32;38.60;;;26.27;;
25419;SDS011;13354;48.174;11.566;2024-02-28T05:11:58;41.75;;;25.77;;
25419;SDS011;13354;48.174;11.566;2024-02-28T05:14:23;36.35;;;24.88;;
25419;SDS011;13354;48.174;11.566;2024-02-28T05:16:49;39.00;;;25.60;;
25419;SDS011;13354;48.174;11.566;2024-02-28T05:19:14;40.30;;;27.00;;
25419;SDS011;13354;48.174;11.566;2024-02-28T05:21:42;41.67;;;26.15;;
25419;SDS011;13354;48.174;11.566;2024-02-28T05:24:08;39.45;;;24.80;;
25419;SDS011;13354;48.174;11.566;2024-02-28T05:26:34;34.05;;;24.08;;
25419;SDS011;13354;48.174;11.566;2024-02-28T05:29:00;38.58;;;25.73;;
25419;SDS011;13354;48.174;11.566;2024-02-28T05:31:26;36.67;;;25.20;;
25419;SDS011;13354;48.174;11.566;2024-02-28T05:33:53;44.00;;;26.38;;
25419;SDS011;13354;48.174;11.566;2024-02-28T05:36:21;41.58;;;25.38;;
25419;SDS011;13354;48.174;11.566;2024-02-28T05:38:48;38.60;;;24.90;;
25419;SDS011;13354;48.174;11.566;2024-02-28T05:41:13;36.80;;;25.63;;
25419;SDS011;13354;48.174;11.566;2024-02-28T05:43:39;38.10;;;24.50;;
25419;SDS011;13354;48.174;11.566;2024-02-28T05:46:05;40.33;;;26.00;;
25419;SDS011;13354;48.174;11.566;2024-02-28T05:48:31;42.53;;;25.38;;
25419;SDS011;13354;48.174;11.566;2024-02-28T05:50:56;39.60;;;25.92;;
25419;SDS011;13354;48.174;11.566;2024-02-28T05:53:22;38.05;;;25.73;;
25419;SDS011;13354;48.174;11.566;2024-02-28T05:55:51;41.30;;;25.25;;
25419;SDS011;13354;48.174;11.566;2024-02-28T05:58:18;37.42;;;25.63;;
25419;SDS011;13354;48.174;11.566;2024-02-28T06:00:44;37.97;;;25.17;;
25419;SDS011;13354;48.174;11.566;2024-02-28T06:03:09;37.08;;;24.65;;
25419;SDS011;13354;48.174;11.566;2024-02-28T06:05:34;40.38;;;26.33;;
25419;SDS011;13354;48.174;11.566;2024-02-28T06:08:00;41.05;;;26.38;;
25419;SDS011;13354;48.174;11.566;2024-02-28T06:10:25;39.17;;;25.33;;
25419;SDS011;13354;48.174;11.566;2024-02-28T06:12:51;41.20;;;26.45;;
25419;SDS011;13354;48.174;11.566;2024-02-28T06:15:17;36.47;;;25.80;;
25419;SDS011;13354;48.174;11.566;2024-02-28T06:17:42;39.75;;;26.45;;
25419;SDS011;13354;48.174;11.566;2024-02-28T06:20:07;39.83;;;26.00;;
25419;SDS011;13354;48.174;11.566;2024-02-28T06:22:33;46.40;;;26.60;;
25419;SDS011;13354;48.174;11.566;2024-02-28T06:24:58;43.55;;;27.75;;
25419;SDS011;13354;48.174;11.566;2024-02-28T06:27:23;42.63;;;26.85;;
25419;SDS011;13354;48.174;11.566;2024-02-28T06:29:49;41.38;;;26.95;;
25419;SDS011;13354;48.174;11.566;2024-02-28T06:32:14;42.60;;;27.48;;
25419;SDS011;13354;48.174;11.566;2024-02-28T06:34:40;41.03;;;27.83;;
25419;SDS011;13354;48.174;11.566;2024-02-28T06:37:06;44.55;;;27.95;;
25419;SDS011;13354;48.174;11.566;2024-02-28T06:39:32;42.88;;;26.70;;
25419;SDS011;13354;48.174;11.566;2024-02-28T06:41:57;41.35;;;27.15;;
25419;SDS011;13354;48.174;11.566;2024-02-28T06:44:22;45.22;;;27.00;;
25419;SDS011;13354;48.174;11.566;2024-02-28T06:46:48;43.78;;;28.90;;
25419;SDS011;13354;48.174;11.566;2024-02-28T06:49:13;43.40;;;27.75;;
25419;SDS011;13354;48.174;11.566;2024-02-28T06:51:39;46.17;;;27.10;;
25419;SDS011;13354;48.174;11.566;2024-02-28T06:54:04;46.70;;;28.38;;
25419;SDS011;13354;48.174;11.566;2024-02-28T06:56:30;47.75;;;28.30;;
25419;SDS011;13354;48.174;11.566;2024-02-28T06:58:55;50.80;;;31.02;;
25419;SDS011;13354;48.174;11.566;2024-02-28T07:01:21;52.67;;;31.00;;
25419;SDS011;13354;48.174;11.566;2024-02-28T07:03:46;52.83;;;30.48;;
25419;SDS011;13354;48.174;11.566;2024-02-28T07:06:12;54.03;;;31.35;;
25419;SDS011;13354;48.174;11.566;2024-02-28T07:08:37;53.58;;;30.55;;
25419;SDS011;13354;48.174;11.566;2024-02-28T07:11:02;55.58;;;31.73;;
25419;SDS011;13354;48.174;11.566;2024-02-28T07:13:28;51.47;;;29.80;;
25419;SDS011;13354;48.174;11.566;2024-02-28T07:15:54;57.20;;;30.88;;
25419;SDS011;13354;48.174;11.566;2024-02-28T07:18:19;54.47;;;31.10;;
25419;SDS011;13354;48.174;11.566;2024-02-28T07:20:45;57.10;;;31.77;;
25419;SDS011;13354;48.174;11.566;2024-02-28T07:23:11;52.92;;;31.13;;
25419;SDS011;13354;48.174;11.566;2024-02-28T07:25:37;57.75;;;31.77;;
25419;SDS011;13354;48.174;11.566;2024-02-28T07:28:02;55.47;;;32.47;;
25419;SDS011;13354;48.174;11.566;2024-02-28T07:30:28;53.95;;;31.35;;
25419;SDS011;13354;48.174;11.566;2024-02-28T07:32:53;51.30;;;30.55;;
25419;SDS011;13354;48.174;11.566;2024-02-28T07:35:19;51.42;;;30.05;;
25419;SDS011;13354;48.174;11.566;2024-02-28T07:37:45;53.10;;;30.60;;
25419;SDS011;13354;48.174;11.566;2024-02-28T07:40:11;54.22;;;30.40;;
25419;SDS011;13354;48.174;11.566;2024-02-28T07:42:37;48.60;;;30.60;;
25419;SDS011;13354;48.174;11.566;2024-02-28T07:45:02;57.20;;;35.33;;
25419;SDS011;13354;48.174;11.566;2024-02-28T07:47:28;69.88;;;42.20;;
25419;SDS011;13354;48.174;11.566;2024-02-28T07:49:53;52.35;;;32.72;;
25419;SDS011;13354;48.174;11.566;2024-02-28T07:52:19;54.15;;;32.03;;
25419;SDS011;13354;48.174;11.566;2024-02-28T07:54:45;55.88;;;33.42;;
25419;SDS011;13354;48.174;11.566;2024-02-28T07:57:10;55.67;;;32.45;;
25419;SDS011;13354;48.174;11.566;2024-02-28T07:59:39;59.10;;;34.30;;
25419;SDS011;13354;48.174;11.566;2024-02-28T08:02:05;56.70;;;32.35;;
25419;SDS011;13354;48.174;11.566;2024-02-28T08:04:31;50.88;;;31.65;;
25419;SDS011;13354;48.174;11.566;2024-02-28T08:06:56;56.35;;;31.27;;
25419;SDS011;13354;48.174;11.566;2024-02-28T08:09:22;54.42;;;30.75;;
25419;SDS011;13354;48.174;11.566;2024-02-28T08:11:47;56.60;;;31.52;;
25419;SDS011;13354;48.174;11.566;2024-02-28T08:14:13;56.47;;;31.30;;
25419;SDS011;13354;48.174;11.566;2024-02-28T08:16:38;57.97;;;31.73;;
25419;SDS011;13354;48.174;11.566;2024-02-28T08:19:04;53.78;;;32.10;;
25419;SDS011;13354;48.174;11.566;2024-02-28T08:21:29;55.78;;;32.03;;
25419;SDS011;13354;48.174;11.566;2024-02-28T08:23:54;60.03;;;34.20;;
25419;SDS011;13354;48.174;11.566;2024-02-28T08:26:20;57.70;;;33.78;;
25419;SDS011;13354;48.174;11.566;2024-02-28T08:28:45;59.30;;;34.42;;
25419;SDS011;13354;48.174;11.566;2024-02-28T08:31:11;50.20;;;28.25;;
25419;SDS011;13354;48.174;11.566;2024-02-28T08:33:36;59.05;;;30.83;;
25419;SDS011;13354;48.174;11.566;2024-02-28T08:36:01;55.75;;;32.13;;
25419;SDS011;13354;48.174;11.566;2024-02-28T08:38:27;48.25;;;29.25;;
25419;SDS011;13354;48.174;11.566;2024-02-28T08:40:53;51.20;;;29.38;;
25419;SDS011;13354;48.174;11.566;2024-02-28T08:43:18;52.28;;;30.17;;
25419;SDS011;13354;48.174;11.566;2024-02-28T08:45:43;53.90;;;31.27;;
25419;SDS011;13354;48.174;11.566;2024-02-28T08:48:09;53.05;;;31.20;;
25419;SDS011;13354;48.174;11.566;2024-02-28T08:50:34;55.50;;;33.67;;
25419;SDS011;13354;48.174;11.566;2024-02-28T08:53:00;51.47;;;31.73;;
25419;SDS011;13354;48.174;11.566;2024-02-28T08:55:26;55.17;;;31.13;;
25419;SDS011;13354;48.174;11.566;2024-02-28T08:57:51;55.25;;;32.67;;
25419;SDS011;13354;48.174;11.566;2024-02-28T09:00:16;50.80;;;31.88;;
25419;SDS011;13354;48.174;11.566;2024-02-28T09:02:42;51.50;;;31.15;;
25419;SDS011;13354;48.174;11.566;2024-02-28T09:05:08;51.38;;;31.40;;
25419;SDS011;13354;48.174;11.566;2024-02-28T09:07:34;52.90;;;32.17;;
25419;SDS011;13354;48.174;11.566;2024-02-28T09:10:03;52.78;;;33.13;;
25419;SDS011;13354;48.174;11.566;2024-02-28T09:12:29;57.55;;;33.65;;
25419;SDS011;13354;48.174;11.566;2024-02-28T09:14:55;54.70;;;33.72;;
25419;SDS011;13354;48.174;11.566;2024-02-28T09:17:22;53.83;;;32.88;;
25419;SDS011;13354;48.174;11.566;2024-02-28T09:19:48;54.25;;;31.25;;
25419;SDS011;13354;48.174;11.566;2024-02-28T09:22:13;56.80;;;33.70;;
25419;SDS011;13354;48.174;11.566;2024-02-28T09:24:39;52.85;;;32.65;;
25419;SDS011;13354;48.174;11.566;2024-02-28T09:27:05;54.97;;;32.05;;
25419;SDS011;13354;48.174;11.566;2024-02-28T09:29:30;55.47;;;33.78;;
25419;SDS011;13354;48.174;11.566;2024-02-28T09:31:56;51.00;;;31.20;;
25419;SDS011;13354;48.174;11.566;2024-02-28T09:34:21;49.65;;;29.85;;
25419;SDS011;13354;48.174;11.566;2024-02-28T09:36:47;51.97;;;30.13;;
25419;SDS011;13354;48.174;11.566;2024-02-28T09:39:12;46.35;;;28.98;;
25419;SDS011;13354;48.174;11.566;2024-02-28T09:41:38;52.92;;;30.60;;
25419;SDS011;13354;48.174;11.566;2024-02-28T09:44:04;47.42;;;29.20;;
25419;SDS011;13354;48.174;11.566;2024-02-28T09:46:31;47.95;;;29.27;;
25419;SDS011;13354;48.174;11.566;2024-02-28T09:48:59;44.90;;;29.48;;
25419;SDS011;13354;48.174;11.566;2024-02-28T09:51:28;44.03;;;28.48;;
25419;SDS011;13354;48.174;11.566;2024-02-28T09:53:55;44.08;;;27.23;;
25419;SDS011;13354;48.174;11.566;2024-02-28T09:56:21;42.80;;;26.83;;
25419;SDS011;13354;48.174;11.566;2024-02-28T09:58:48;48.20;;;28.48;;
25419;SDS011;13354;48.174;11.566;2024-02-28T10:01:13;44.90;;;28.63;;
25419;SDS011;13354;48.174;11.566;2024-02-28T10:03:42;47.35;;;30.65;;
25419;SDS011;13354;48.174;11.566;2024-02-28T10:06:09;44.72;;;28.50;;
25419;SDS011;13354;48.174;11.566;2024-02-28T10:08:34;48.83;;;30.13;;
25419;SDS011;13354;48.174;11.566;2024-02-28T10:11:02;46.13;;;28.75;;
25419;SDS011;13354;48.174;11.566;2024-02-28T10:13:28;52.97;;;32.17;;
25419;SDS011;13354;48.174;11.566;2024-02-28T10:15:53;49.08;;;29.80;;
25419;SDS011;13354;48.174;11.566;2024-02-28T10:18:19;54.28;;;31.20;;
25419;SDS011;13354;48.174;11.566;2024-02-28T10:20:45;51.25;;;29.67;;
25419;SDS011;13354;48.174;11.566;2024-02-28T10:23:10;46.97;;;28.70;;
25419;SDS011;13354;48.174;11.566;2024-02-28T10:25:42;42.97;;;27.98;;
25419;SDS011;13354;48.174;11.566;2024-02-28T10:28:12;45.55;;;27.85;;
25419;SDS011;13354;48.174;11.566;2024-02-28T10:30:40;41.53;;;27.23;;
25419;SDS011;13354;48.174;11.566;2024-02-28T10:33:11;45.53;;;28.75;;
25419;SDS011;13354;48.174;11.566;2024-02-28T10:35:40;47.47;;;28.08;;
25419;SDS011;13354;48.174;11.566;2024-02-28T10:38:11;45.08;;;27.92;;
25419;SDS011;13354;48.174;11.566;2024-02-28T10:40:39;48.88;;;29.98;;
25419;SDS011;13354;48.174;11.566;2024-02-28T10:43:05;47.10;;;29.60;;
25419;SDS011;13354;48.174;11.566;2024-02-28T10:45:33;47.90;;;30.27;;
25419;SDS011;13354;48.174;11.566;2024-02-28T10:48:01;48.05;;;29.45;;
25419;SDS011;13354;48.174;11.566;2024-02-28T10:50:28;45.47;;;28.67;;
25419;SDS011;13354;48.174;11.566;2024-02-28T10:52:54;48.40;;;29.33;;
25419;SDS011;13354;48.174;11.566;2024-02-28T10:55:25;44.80;;;27.33;;
25419;SDS011;13354;48.174;11.566;2024-02-28T10:57:57;48.50;;;30.02;;
25419;SDS011;13354;48.174;11.566;2024-02-28T11:00:28;45.72;;;28.27;;
25419;SDS011;13354;48.174;11.566;2024-02-28T11:02:55;44.53;;;28.50;;
25419;SDS011;13354;48.174;11.566;2024-02-28T11:05:22;45.17;;;29.17;;
25419;SDS011;13354;48.174;11.566;2024-02-28T11:07:50;45.70;;;29.17;;
25419;SDS011;13354;48.174;11.566;2024-02-28T11:10:16;46.00;;;30.27;;
25419;SDS011;13354;48.174;11.566;2024-02-28T11:12:42;44.30;;;28.00;;
25419;SDS011;13354;48.174;11.566;2024-02-28T11:15:15;43.63;;;28.33;;
25419;SDS011;13354;48.174;11.566;2024-02-28T11:17:42;35.80;;;22.27;;
25419;SDS011;13354;48.174;11.566;2024-02-28T11:20:11;46.15;;;28.48;;
25419;SDS011;13354;48.174;11.566;2024-02-28T11:22:37;45.72;;;28.13;;
25419;SDS011;13354;48.174;11.566;2024-02-28T11:25:04;40.20;;;27.40;;
25419;SDS011;13354;48.174;11.566;2024-02-28T11:27:31;41.85;;;26.35;;
25419;SDS011;13354;48.174;11.566;2024-02-28T11:29:56;47.42;;;28.52;;
25419;SDS011;13354;48.174;11.566;2024-02-28T11:32:24;44.20;;;28.15;;
25419;SDS011;13354;48.174;11.566;2024-02-28T11:34:50;40.67;;;27.95;;
25419;SDS011;13354;48.174;11.566;2024-02-28T11:37:16;48.30;;;31.38;;
25419;SDS011;13354;48.174;11.566;2024-02-28T11:39:46;46.58;;;29.50;;
25419;SDS011;13354;48.174;11.566;2024-02-28T11:42:13;42.33;;;28.40;;
25419;SDS011;13354;48.174;11.566;2024-02-28T11:44:40;43.30;;;28.38;;
25419;SDS011;13354;48.174;11.566;2024-02-28T11:47:07;47.72;;;30.02;;
25419;SDS011;13354;48.174;11.566;2024-02-28T11:49:34;45.65;;;28.88;;
25419;SDS011;13354;48.174;11.566;2024-02-28T11:52:00;50.30;;;30.65;;
25419;SDS011;13354;48.174;11.566;2024-02-28T11:54:25;45.78;;;30.75;;
25419;SDS011;13354;48.174;11.566;2024-02-28T11:56:50;47.75;;;30.58;;
25419;SDS011;13354;48.174;11.566;2024-02-28T11:59:16;45.42;;;28.15;;
25419;SDS011;13354;48.174;11.566;2024-02-28T12:01:41;45.08;;;28.85;;
25419;SDS011;13354;48.174;11.566;2024-02-28T12:04:08;47.30;;;29.88;;
25419;SDS011;13354;48.174;11.566;2024-02-28T12:06:35;44.70;;;29.27;;
25419;SDS011;13354;48.174;11.566;2024-02-28T12:09:02;50.20;;;31.30;;
25419;SDS011;13354;48.174;11.566;2024-02-28T12:11:33;47.13;;;29.45;;
25419;SDS011;13354;48.174;11.566;2024-02-28T12:13:59;46.10;;;29.25;;
25419;SDS011;13354;48.174;11.566;2024-02-28T12:16:28;45.38;;;30.10;;
25419;SDS011;13354;48.174;11.566;2024-02-28T12:18:55;46.78;;;30.13;;
25419;SDS011;13354;48.174;11.566;2024-02-28T12:21:21;44.92;;;30.70;;
25419;SDS011;13354;48.174;11.566;2024-02-28T12:23:46;44.55;;;29.45;;
25419;SDS011;13354;48.174;11.566;2024-02-28T12:26:16;45.38;;;30.55;;
25419;SDS011;13354;48.174;11.566;2024-02-28T12:28:42;51.35;;;30.95;;
25419;SDS011;13354;48.174;11.566;2024-02-28T12:31:08;47.13;;;30.63;;
25419;SDS011;13354;48.174;11.566;2024-02-28T12:33:36;49.58;;;31.50;;
25419;SDS011;13354;48.174;11.566;2024-02-28T12:36:02;46.92;;;31.17;;
25419;SDS011;13354;48.174;11.566;2024-02-28T12:38:29;44.40;;;29.02;;
25419;SDS011;13354;48.174;11.566;2024-02-28T12:40:54;45.40;;;29.02;;
25419;SDS011;13354;48.174;11.566;2024-02-28T12:43:20;42.80;;;27.60;;
25419;SDS011;13354;48.174;11.566;2024-02-28T12:45:45;43.08;;;28.40;;
25419;SDS011;13354;48.174;11.566;2024-02-28T12:48:11;42.92;;;27.88;;
25419;SDS011;13354;48.174;11.566;2024-02-28T12:50:36;42.17;;;29.67;;
25419;SDS011;13354;48.174;11.566;2024-02-28T12:53:02;47.88;;;29.48;;
25419;SDS011;13354;48.174;11.566;2024-02-28T12:55:28;41.67;;;27.67;;
25419;SDS011;13354;48.174;11.566;2024-02-28T12:57:53;46.05;;;28.40;;
25419;SDS011;13354;48.174;11.566;2024-02-28T13:00:19;44.35;;;27.88;;
25419;SDS011;13354;48.174;11.566;2024-02-28T13:02:44;40.05;;;27.50;;
25419;SDS011;13354;48.174;11.566;2024-02-28T13:05:11;43.28;;;28.70;;
25419;SDS011;13354;48.174;11.566;2024-02-28T13:07:38;42.28;;;28.38;;
25419;SDS011;13354;48.174;11.566;2024-02-28T13:10:03;40.42;;;28.17;;
25419;SDS011;13354;48.174;11.566;2024-02-28T13:12:30;40.63;;;27.52;;
25419;SDS011;13354;48.174;11.566;2024-02-28T13:14:55;41.55;;;26.75;;
25419;SDS011;13354;48.174;11.566;2024-02-28T13:17:21;42.13;;;26.83;;
25419;SDS011;13354;48.174;11.566;2024-02-28T13:19:47;40.03;;;26.60;;
25419;SDS011;13354;48.174;11.566;2024-02-28T13:22:12;44.72;;;29.05;;
25419;SDS011;13354;48.174;11.566;2024-02-28T13:24:37;47.38;;;29.73;;
25419;SDS011;13354;48.174;11.566;2024-02-28T13:27:03;42.72;;;28.02;;
25419;SDS011;13354;48.174;11.566;2024-02-28T13:29:28;45.08;;;29.45;;
25419;SDS011;13354;48.174;11.566;2024-02-28T13:31:56;37.92;;;26.83;;
25419;SDS011;13354;48.174;11.566;2024-02-28T13:34:21;41.47;;;27.30;;
25419;SDS011;13354;48.174;11.566;2024-02-28T13:36:46;45.28;;;28.20;;
25419;SDS011;13354;48.174;11.566;2024-02-28T13:39:12;41.03;;;27.13;;
25419;SDS011;13354;48.174;11.566;2024-02-28T13:41:39;40.83;;;26.48;;
25419;SDS011;13354;48.174;11.566;2024-02-28T13:44:04;41.78;;;28.33;;
25419;SDS011;13354;48.174;11.566;2024-02-28T13:46:30;43.03;;;28.30;;
25419;SDS011;13354;48.174;11.566;2024-02-28T13:48:57;39.70;;;26.63;;
25419;SDS011;13354;48.174;11.566;2024-02-28T13:51:23;41.75;;;26.95;;
25419;SDS011;13354;48.174;11.566;2024-02-28T13:53:49;42.28;;;27.15;;
25419;SDS011;13354;48.174;11.566;2024-02-28T13:56:17;40.67;;;28.13;;
25419;SDS011;13354;48.174;11.566;2024-02-28T13:58:42;41.45;;;27.05;;
25419;SDS011;13354;48.174;11.566;2024-02-28T14:01:08;41.92;;;27.13;;